Time;durP1;ratioP1;P1;durP2;ratioP2;P2;SDS_P1;SDS_P2;PMS_P1;PMS_P2;Temp;Humidity;BMP_temperature;BMP_pressure;BME280_temperature;BME280_humidity;BME280_pressure;Samples;Min_cycle;Max_cycle;Signal;HPM_P1;HPM_P2
2022/09/22 00:01:37;;;;;;;2.23;2.03;;;16.30;58.00;;;;;;4949072;28;20532;-73
2022/09/22 00:04:07;;;;;;;2.83;2.57;;;16.30;57.90;;;;;;4961127;28;20491;-74
2022/09/22 00:06:38;;;;;;;2.17;1.63;;;16.30;58.00;;;;;;4963161;28;20555;-74
2022/09/22 00:09:09;;;;;;;1.87;1.77;;;16.30;58.00;;;;;;4956489;28;20515;-72
2022/09/22 00:11:40;;;;;;;2.30;1.80;;;16.30;57.90;;;;;;4952918;28;20825;-73
2022/09/22 00:14:12;;;;;;;1.87;1.77;;;16.30;58.00;;;;;;4954094;28;20570;-75
2022/09/22 00:16:43;;;;;;;2.63;2.17;;;16.30;57.90;;;;;;4960226;28;20951;-74
2022/09/22 00:19:14;;;;;;;2.37;2.17;;;16.30;57.90;;;;;;4947059;29;20485;-74
2022/09/22 00:21:45;;;;;;;2.70;2.00;;;16.30;57.90;;;;;;4940016;29;21075;-74
2022/09/22 00:24:17;;;;;;;2.10;1.63;;;16.30;57.80;;;;;;4940241;28;20891;-74
2022/09/22 00:26:45;;;;;;;2.80;2.17;;;16.30;57.80;;;;;;4940657;29;20467;-73
2022/09/22 00:29:15;;;;;;;2.30;1.77;;;16.30;57.90;;;;;;4957302;28;20861;-73
2022/09/22 00:31:45;;;;;;;2.33;2.07;;;16.30;57.80;;;;;;4960320;28;20539;-73
2022/09/22 00:34:16;;;;;;;1.93;1.50;;;16.30;57.80;;;;;;4962794;28;20479;-74
2022/09/22 00:36:45;;;;;;;3.90;2.40;;;16.30;57.80;;;;;;4946100;28;20572;-74
2022/09/22 00:39:15;;;;;;;2.57;2.13;;;16.30;57.80;;;;;;4955545;28;20507;-75
2022/09/22 00:41:46;;;;;;;2.17;1.97;;;16.20;57.70;;;;;;4952615;28;20560;-73
2022/09/22 00:44:36;;;;;;;3.80;2.77;;;16.20;57.70;;;;;;4946296;28;20534;-74
2022/09/22 00:47:29;;;;;;;2.00;1.80;;;16.30;57.80;;;;;;4955137;28;20456;-73
2022/09/22 00:50:04;;;;;;;3.17;2.37;;;16.30;58.90;;;;;;4928630;29;20455;-73
2022/09/22 00:52:38;;;;;;;2.07;1.80;;;16.30;57.70;;;;;;4946372;28;20431;-74
2022/09/22 00:55:12;;;;;;;5.17;2.77;;;16.30;57.70;;;;;;4933079;29;20472;-73
2022/09/22 00:57:42;;;;;;;2.43;1.73;;;16.20;57.70;;;;;;4941978;29;20451;-68
2022/09/22 01:00:13;;;;;;;3.80;2.20;;;16.30;57.70;;;;;;4947196;28;20447;-68
2022/09/22 01:02:43;;;;;;;2.77;2.30;;;16.30;57.60;;;;;;4950317;28;20884;-69
2022/09/22 01:05:12;;;;;;;1.80;1.70;;;16.30;57.70;;;;;;4953679;28;20813;-69
2022/09/22 01:07:41;;;;;;;3.20;2.20;;;16.20;57.50;;;;;;4949710;28;20444;-68
2022/09/22 01:10:11;;;;;;;2.30;2.10;;;16.20;57.50;;;;;;4923087;29;20889;-69
2022/09/22 01:12:47;;;;;;;1.70;1.60;;;16.20;57.50;;;;;;4946110;28;20558;-69
2022/09/22 01:15:25;;;;;;;2.47;2.10;;;16.20;57.50;;;;;;4946970;29;20463;-68
2022/09/22 01:18:13;;;;;;;2.13;1.73;;;16.20;57.50;;;;;;4922985;29;20552;-69
2022/09/22 01:21:14;;;;;;;4.23;1.80;;;16.20;57.50;;;;;;4947595;28;20463;-69
2022/09/22 01:24:35;;;;;;;1.90;1.80;;;16.20;57.50;;;;;;4963167;28;20511;-67
2022/09/22 01:27:38;;;;;;;2.50;2.30;;;16.20;57.50;;;;;;4961403;28;20479;-69
2022/09/22 01:30:21;;;;;;;2.20;2.00;;;16.20;57.40;;;;;;4922009;29;20956;-67
2022/09/22 01:33:22;;;;;;;1.90;1.70;;;16.20;57.40;;;;;;4964264;28;20545;-70
2022/09/22 01:36:08;;;;;;;2.93;2.07;;;16.20;57.40;;;;;;4958174;28;20557;-68
2022/09/22 01:38:41;;;;;;;2.87;1.80;;;16.20;57.50;;;;;;4949472;28;21008;-68
2022/09/22 01:41:15;;;;;;;2.77;2.00;;;16.20;57.50;;;;;;4947424;29;20522;-70
2022/09/22 01:43:50;;;;;;;2.87;2.13;;;16.20;57.40;;;;;;4954238;28;20568;-68
2022/09/22 01:46:26;;;;;;;1.93;1.83;;;16.20;57.30;;;;;;4942395;28;20975;-70
2022/09/22 01:48:59;;;;;;;4.63;1.93;;;16.20;57.40;;;;;;4949380;28;20505;-70
2022/09/22 01:51:30;;;;;;;2.07;1.60;;;16.20;57.30;;;;;;4957934;28;20467;-70
2022/09/22 01:54:05;;;;;;;1.97;1.77;;;16.20;57.30;;;;;;4947180;29;20582;-69
2022/09/22 01:56:36;;;;;;;2.80;2.20;;;16.10;57.30;;;;;;4958452;28;20510;-68
2022/09/22 01:59:07;;;;;;;2.63;1.73;;;16.20;57.40;;;;;;4957486;28;20511;-70
2022/09/22 02:01:41;;;;;;;2.23;1.90;;;16.20;57.30;;;;;;4949205;29;20451;-68
2022/09/22 02:04:18;;;;;;;2.13;1.87;;;16.10;57.20;;;;;;4941490;28;20854;-69
2022/09/22 02:06:52;;;;;;;1.87;1.70;;;16.20;57.30;;;;;;4941396;29;20491;-67
2022/09/22 02:09:24;;;;;;;1.90;1.43;;;16.20;57.30;;;;;;4948045;29;20914;-69
2022/09/22 02:11:53;;;;;;;1.90;1.70;;;16.10;57.20;;;;;;4948532;28;20448;-70
2022/09/22 02:14:21;;;;;;;2.00;1.80;;;16.10;57.10;;;;;;4948644;28;20483;-71
2022/09/22 02:16:51;;;;;;;1.70;1.60;;;16.10;58.30;;;;;;4944510;29;20455;-70
2022/09/22 02:19:23;;;;;;;2.57;1.73;;;16.10;57.20;;;;;;4950462;28;20499;-69
2022/09/22 02:21:53;;;;;;;3.80;2.17;;;16.10;57.20;;;;;;4928549;29;20447;-69
2022/09/22 02:24:30;;;;;;;2.53;1.93;;;16.10;57.20;;;;;;4966549;28;20498;-69
2022/09/22 02:27:00;;;;;;;3.00;2.20;;;16.10;57.20;;;;;;4952689;28;20849;-70
2022/09/22 02:29:32;;;;;;;1.90;1.43;;;16.10;57.20;;;;;;4946720;29;20472;-70
2022/09/22 02:32:07;;;;;;;3.23;1.90;;;16.10;57.10;;;;;;4962526;28;20540;-70
2022/09/22 02:34:36;;;;;;;2.97;1.80;;;16.10;57.20;;;;;;4961513;28;20554;-70
2022/09/22 02:37:16;;;;;;;2.40;1.90;;;16.10;57.10;;;;;;4966278;28;20473;-69
2022/09/22 02:39:51;;;;;;;2.60;1.70;;;16.10;57.20;;;;;;4950843;29;20562;-69
2022/09/22 02:42:27;;;;;;;2.60;1.97;;;16.10;57.10;;;;;;4958777;28;20452;-68
2022/09/22 02:45:01;;;;;;;1.97;1.80;;;16.10;57.00;;;;;;4968146;28;20499;-69
2022/09/22 02:47:36;;;;;;;2.13;1.70;;;16.10;57.00;;;;;;4944961;29;20475;-69
2022/09/22 02:50:09;;;;;;;2.47;1.57;;;16.10;57.00;;;;;;4952163;29;20522;-69
2022/09/22 02:52:39;;;;;;;2.10;1.43;;;16.10;57.00;;;;;;4950809;28;20448;-70
2022/09/22 02:55:09;;;;;;;2.33;1.70;;;16.10;57.00;;;;;;4963453;28;20503;-69
2022/09/22 02:57:38;;;;;;;2.10;1.87;;;16.10;56.10;;;;;;4949583;29;20537;-70
2022/09/22 03:00:07;;;;;;;2.50;1.70;;;16.00;56.70;;;;;;4949866;29;20435;-70
2022/09/22 03:02:37;;;;;;;2.87;1.90;;;16.00;56.60;;;;;;4959265;28;20440;-68
2022/09/22 03:05:06;;;;;;;3.93;2.03;;;16.00;56.70;;;;;;4940105;28;20477;-69
2022/09/22 03:07:35;;;;;;;1.70;1.60;;;16.00;56.90;;;;;;4961803;28;20468;-69
2022/09/22 03:10:04;;;;;;;1.53;1.40;;;16.00;56.80;;;;;;4946391;28;20507;-69
2022/09/22 03:12:33;;;;;;;2.47;2.13;;;16.00;56.80;;;;;;4956177;28;20528;-70
2022/09/22 03:15:02;;;;;;;1.67;1.57;;;16.00;56.60;;;;;;4952776;28;20472;-70
2022/09/22 03:17:33;;;;;;;3.60;1.47;;;16.00;56.70;;;;;;4947222;28;20542;-69
2022/09/22 03:20:03;;;;;;;2.90;1.73;;;16.00;56.70;;;;;;4962657;28;20455;-70
2022/09/22 03:22:31;;;;;;;1.57;1.40;;;16.00;56.60;;;;;;4957569;28;20440;-70
2022/09/22 03:25:00;;;;;;;2.73;1.40;;;16.00;56.60;;;;;;4961618;28;20493;-68
2022/09/22 03:27:28;;;;;;;1.47;1.37;;;16.00;56.60;;;;;;4962951;28;20507;-70
2022/09/22 03:29:56;;;;;;;1.50;1.37;;;16.00;56.50;;;;;;4960555;28;20858;-69
2022/09/22 03:32:25;;;;;;;1.30;1.20;;;16.00;56.70;;;;;;4944130;29;20556;-68
2022/09/22 03:34:54;;;;;;;2.70;2.00;;;16.00;56.60;;;;;;4953867;28;20445;-69
2022/09/22 03:37:24;;;;;;;2.00;1.80;;;16.00;56.60;;;;;;4935510;28;20531;-70
2022/09/22 03:39:52;;;;;;;1.23;1.13;;;16.00;56.60;;;;;;4939074;29;20507;-74
2022/09/22 03:42:22;;;;;;;2.27;1.90;;;16.00;56.70;;;;;;4946673;28;20442;-75
2022/09/22 03:44:52;;;;;;;1.80;1.40;;;16.00;56.60;;;;;;4954190;28;20484;-73
2022/09/22 03:47:21;;;;;;;1.53;1.43;;;16.00;56.50;;;;;;4943519;28;20454;-74
2022/09/22 03:49:49;;;;;;;2.03;1.83;;;15.90;56.40;;;;;;4943104;29;20968;-74
2022/09/22 03:52:19;;;;;;;1.70;1.50;;;16.00;56.60;;;;;;4945251;29;20534;-74
2022/09/22 03:54:48;;;;;;;1.40;1.17;;;15.90;56.40;;;;;;4944698;28;20468;-73
2022/09/22 03:57:17;;;;;;;1.90;1.40;;;16.00;56.60;;;;;;4960182;28;20534;-73
2022/09/22 03:59:45;;;;;;;1.90;1.80;;;15.90;56.40;;;;;;4958121;28;20605;-73
2022/09/22 04:02:14;;;;;;;1.37;1.27;;;15.90;56.40;;;;;;4953829;28;20451;-73
2022/09/22 04:04:42;;;;;;;1.20;1.10;;;15.90;56.40;;;;;;4932982;29;20488;-74
2022/09/22 04:07:11;;;;;;;1.53;1.43;;;15.90;56.40;;;;;;4949965;28;20831;-75
2022/09/22 04:09:40;;;;;;;1.70;1.50;;;15.90;56.40;;;;;;4946253;29;20539;-73
2022/09/22 04:12:10;;;;;;;2.20;1.50;;;15.90;56.40;;;;;;4962483;28;20440;-72
2022/09/22 04:14:39;;;;;;;2.80;1.97;;;15.90;56.40;;;;;;4941239;29;20448;-73
2022/09/22 04:17:08;;;;;;;2.27;1.60;;;15.90;56.40;;;;;;4941708;28;20450;-74
2022/09/22 04:19:36;;;;;;;1.30;1.20;;;15.90;56.40;;;;;;4962954;28;20442;-73
2022/09/22 04:22:04;;;;;;;2.50;1.60;;;15.90;56.40;;;;;;4944111;28;20435;-73
2022/09/22 04:24:36;;;;;;;2.90;1.70;;;15.90;56.40;;;;;;4935117;29;20480;-73
2022/09/22 04:27:05;;;;;;;1.70;1.33;;;15.90;56.30;;;;;;4949099;28;20504;-73
2022/09/22 04:29:49;;;;;;;1.90;1.67;;;15.90;56.30;;;;;;4945170;29;20464;-73
2022/09/22 04:32:19;;;;;;;1.70;1.40;;;15.90;56.40;;;;;;4946701;28;20448;-74
2022/09/22 04:34:48;;;;;;;1.60;1.47;;;15.90;56.30;;;;;;4950390;28;20959;-73
2022/09/22 04:37:16;;;;;;;1.67;1.10;;;15.90;56.30;;;;;;4961383;28;20935;-73
2022/09/22 04:39:44;;;;;;;1.87;1.57;;;15.90;56.30;;;;;;4966111;28;20827;-73
2022/09/22 04:42:13;;;;;;;2.87;1.27;;;15.80;56.30;;;;;;4932536;29;20459;-73
2022/09/22 04:44:42;;;;;;;3.97;1.63;;;15.80;56.20;;;;;;4949338;28;20467;-73
2022/09/22 04:47:12;;;;;;;1.50;1.40;;;15.80;56.20;;;;;;4927027;28;20439;-74
2022/09/22 04:49:40;;;;;;;1.50;1.40;;;15.80;56.20;;;;;;4959601;28;20868;-73
2022/09/22 04:52:09;;;;;;;1.40;1.30;;;15.80;56.20;;;;;;4952831;29;21006;-74
2022/09/22 04:54:37;;;;;;;1.83;1.47;;;15.80;56.20;;;;;;4951576;29;20455;-73
2022/09/22 04:57:06;;;;;;;3.40;1.23;;;15.80;56.20;;;;;;4954509;28;20994;-72
2022/09/22 04:59:34;;;;;;;1.67;1.50;;;15.80;56.20;;;;;;4947681;29;20463;-73
2022/09/22 05:02:03;;;;;;;1.80;1.60;;;15.80;56.20;;;;;;4941132;29;20935;-70
2022/09/22 05:04:33;;;;;;;3.50;1.43;;;15.80;56.10;;;;;;4947160;29;20803;-70
2022/09/22 05:07:01;;;;;;;1.27;1.17;;;15.80;56.00;;;;;;4944951;29;20483;-71
2022/09/22 05:09:30;;;;;;;1.60;1.43;;;15.80;56.10;;;;;;4941550;28;20484;-70
2022/09/22 05:12:00;;;;;;;1.87;1.77;;;15.80;56.10;;;;;;4933270;29;20486;-69
2022/09/22 05:14:31;;;;;;;1.57;1.43;;;15.80;56.10;;;;;;4951039;28;20491;-69
2022/09/22 05:16:59;;;;;;;1.33;1.23;;;15.80;56.10;;;;;;4958588;28;21046;-70
2022/09/22 05:19:28;;;;;;;6.93;1.70;;;15.80;56.00;;;;;;4965388;28;20885;-70
2022/09/22 05:21:58;;;;;;;1.90;1.30;;;15.70;55.90;;;;;;4942266;29;20456;-70
2022/09/22 05:24:26;;;;;;;1.40;1.30;;;15.80;56.00;;;;;;4931321;29;20555;-71
2022/09/22 05:26:54;;;;;;;2.77;1.50;;;15.80;56.00;;;;;;4959627;28;20554;-69
2022/09/22 05:29:23;;;;;;;6.07;1.17;;;15.80;56.00;;;;;;4940305;28;20574;-69
2022/09/22 05:31:55;;;;;;;2.00;1.60;;;15.80;56.00;;;;;;4966306;28;20908;-70
2022/09/22 05:34:23;;;;;;;1.67;1.40;;;15.80;55.90;;;;;;4943933;28;20983;-70
2022/09/22 05:36:52;;;;;;;1.30;1.03;;;15.70;55.80;;;;;;4963595;28;20433;-70
2022/09/22 05:39:22;;;;;;;2.40;1.23;;;15.70;55.80;;;;;;4960906;28;21066;-69
2022/09/22 05:41:50;;;;;;;4.13;1.60;;;15.70;55.90;;;;;;4950708;29;20464;-70
2022/09/22 05:44:20;;;;;;;1.70;1.60;;;15.70;55.80;;;;;;4949998;28;20570;-70
2022/09/22 05:46:49;;;;;;;1.50;1.40;;;15.70;55.80;;;;;;4943270;28;20485;-70
2022/09/22 05:49:17;;;;;;;1.53;1.43;;;15.70;55.70;;;;;;4965113;28;20474;-69
2022/09/22 05:51:46;;;;;;;2.37;1.40;;;15.70;55.70;;;;;;4955882;28;20503;-70
2022/09/22 05:54:14;;;;;;;1.43;1.33;;;15.70;55.90;;;;;;4944316;28;20614;-70
2022/09/22 05:56:51;;;;;;;1.47;1.30;;;15.70;55.80;;;;;;4951114;29;20550;-69
2022/09/22 05:59:19;;;;;;;1.83;1.10;;;15.70;55.80;;;;;;4953294;28;20687;-71
2022/09/22 06:01:48;;;;;;;1.73;1.63;;;15.70;55.80;;;;;;4953366;28;20443;-70
2022/09/22 06:04:16;;;;;;;2.33;1.20;;;15.70;55.70;;;;;;4943828;28;20474;-69
2022/09/22 06:06:45;;;;;;;1.87;1.43;;;15.70;55.70;;;;;;4951283;28;20487;-75
2022/09/22 06:09:13;;;;;;;1.27;1.13;;;15.70;55.70;;;;;;4947852;29;20554;-74
2022/09/22 06:11:41;;;;;;;1.70;1.47;;;15.60;55.70;;;;;;4948296;28;20432;-74
2022/09/22 06:14:11;;;;;;;1.10;1.00;;;15.60;55.60;;;;;;4991661;23;20494;-73
2022/09/22 06:16:40;;;;;;;2.30;1.27;;;15.70;55.60;;;;;;4968983;28;20889;-74
2022/09/22 06:19:09;;;;;;;1.87;0.93;;;15.60;55.60;;;;;;4961318;28;21024;-74
2022/09/22 06:21:37;;;;;;;1.40;1.10;;;15.60;55.60;;;;;;4969136;28;20525;-74
2022/09/22 06:24:06;;;;;;;2.03;1.40;;;15.60;55.60;;;;;;4963637;28;20490;-73
2022/09/22 06:26:34;;;;;;;2.30;1.60;;;15.60;55.60;;;;;;4970085;28;20510;-73
2022/09/22 06:29:02;;;;;;;2.80;1.73;;;15.60;55.60;;;;;;4968920;28;20495;-73
2022/09/22 06:31:32;;;;;;;1.40;1.30;;;15.60;55.60;;;;;;4969662;28;20954;-73
2022/09/22 06:34:01;;;;;;;1.33;1.23;;;15.60;55.50;;;;;;4969576;28;20505;-73
2022/09/22 06:36:34;;;;;;;3.57;1.20;;;15.60;55.60;;;;;;4967141;28;20467;-73
2022/09/22 06:39:04;;;;;;;1.33;1.23;;;15.60;55.40;;;;;;4963118;28;20482;-73
2022/09/22 06:41:33;;;;;;;1.33;1.23;;;15.60;55.40;;;;;;4967445;28;20492;-73
2022/09/22 06:44:04;;;;;;;2.00;1.43;;;15.60;55.40;;;;;;4967979;28;20521;-72
2022/09/22 06:46:34;;;;;;;1.30;1.20;;;15.60;55.40;;;;;;4965901;28;20475;-73
2022/09/22 06:49:02;;;;;;;1.90;1.37;;;15.60;55.40;;;;;;4967255;28;20565;-72
2022/09/22 06:51:32;;;;;;;1.60;1.40;;;15.60;55.30;;;;;;4961909;28;20503;-73
2022/09/22 06:54:02;;;;;;;2.00;1.40;;;15.60;55.50;;;;;;4967930;28;20952;-72
2022/09/22 06:56:34;;;;;;;2.27;1.70;;;15.60;55.50;;;;;;4953364;28;20490;-72
2022/09/22 06:59:11;;;;;;;1.53;1.23;;;15.60;55.50;;;;;;4967662;28;20489;-72
2022/09/22 07:01:43;;;;;;;1.80;1.33;;;15.60;55.40;;;;;;4953636;28;20542;-73
2022/09/22 07:04:12;;;;;;;1.90;1.03;;;15.60;55.50;;;;;;4968573;28;20466;-73
2022/09/22 07:06:42;;;;;;;2.10;1.33;;;15.60;55.40;;;;;;4963605;28;20517;-73
2022/09/22 07:09:11;;;;;;;2.40;1.60;;;15.60;56.50;;;;;;4967425;28;20474;-73
2022/09/22 07:11:39;;;;;;;1.47;1.37;;;15.50;55.50;;;;;;4968865;28;20442;-73
2022/09/22 07:14:09;;;;;;;1.40;1.23;;;15.50;55.40;;;;;;4960105;28;20466;-73
2022/09/22 07:16:38;;;;;;;2.40;1.33;;;15.50;55.40;;;;;;4968766;28;20470;-73
2022/09/22 07:19:09;;;;;;;2.03;1.50;;;15.50;55.40;;;;;;4967839;28;20474;-73
2022/09/22 07:21:39;;;;;;;1.40;1.20;;;15.50;55.40;;;;;;4976879;28;20447;-73
2022/09/22 07:24:08;;;;;;;2.03;1.40;;;15.50;55.50;;;;;;4971155;28;20498;-73
2022/09/22 07:26:39;;;;;;;1.37;1.27;;;15.50;55.50;;;;;;4968216;28;20870;-72
2022/09/22 07:29:12;;;;;;;0.80;0.80;;;15.50;55.60;;;;;;4968045;28;20803;-73
2022/09/22 07:31:41;;;;;;;2.03;1.10;;;15.50;55.60;;;;;;4968885;28;20458;-72
2022/09/22 07:34:12;;;;;;;1.97;1.43;;;15.50;56.70;;;;;;4968677;28;20517;-72
2022/09/22 07:36:41;;;;;;;1.50;1.20;;;15.50;55.50;;;;;;4966359;28;20477;-73
2022/09/22 07:39:11;;;;;;;1.20;1.10;;;15.50;55.60;;;;;;4967761;28;20482;-73
2022/09/22 07:41:42;;;;;;;1.30;1.00;;;15.50;55.60;;;;;;4966471;28;20534;-72
2022/09/22 07:46:58;;;;;;;2.53;1.50;;;15.60;55.60;;;;;;4966586;28;20497;-73
2022/09/22 07:49:28;;;;;;;3.07;1.67;;;15.60;55.80;;;;;;4963268;28;20466;-73
2022/09/22 07:51:56;;;;;;;1.17;1.07;;;15.60;55.60;;;;;;4966261;28;20450;-73
2022/09/22 07:54:26;;;;;;;1.50;1.30;;;15.60;55.60;;;;;;4966052;28;20477;-73
2022/09/22 07:56:57;;;;;;;1.10;1.00;;;15.60;55.60;;;;;;4966787;28;20534;-73
2022/09/22 07:59:26;;;;;;;2.50;1.50;;;15.60;55.70;;;;;;4966592;28;20462;-72
2022/09/22 08:01:55;;;;;;;1.83;1.50;;;15.60;55.60;;;;;;4965053;28;20545;-73
2022/09/22 08:04:25;;;;;;;1.07;0.90;;;15.60;55.60;;;;;;4966558;28;20819;-73
2022/09/22 08:06:55;;;;;;;1.40;0.97;;;15.60;55.60;;;;;;4962451;28;20554;-73
2022/09/22 08:09:25;;;;;;;1.20;1.00;;;15.60;55.60;;;;;;4967555;28;20562;-73
2022/09/22 08:11:54;;;;;;;1.30;1.17;;;15.60;55.60;;;;;;4963718;28;20864;-73
2022/09/22 08:14:23;;;;;;;1.10;0.90;;;15.60;55.60;;;;;;4971012;28;20498;-73
2022/09/22 08:16:52;;;;;;;1.40;1.30;;;15.60;55.60;;;;;;4968671;28;20440;-73
2022/09/22 08:19:23;;;;;;;1.30;1.00;;;15.60;55.70;;;;;;4970910;28;20472;-74
2022/09/22 08:21:52;;;;;;;1.47;1.03;;;15.60;55.60;;;;;;4970759;28;20473;-73
2022/09/22 08:24:23;;;;;;;3.90;1.30;;;15.60;55.60;;;;;;4968070;28;20474;-73
2022/09/22 08:26:54;;;;;;;1.57;1.23;;;15.60;55.60;;;;;;4979473;28;20459;-72
2022/09/22 08:29:24;;;;;;;1.80;1.17;;;15.60;55.60;;;;;;4970379;28;20494;-73
2022/09/22 08:31:52;;;;;;;1.33;1.10;;;15.60;55.60;;;;;;4957826;28;20446;-73
2022/09/22 08:34:21;;;;;;;2.97;1.20;;;15.60;55.40;;;;;;4966497;28;20474;-72
2022/09/22 08:36:50;;;;;;;1.13;1.00;;;15.60;55.50;;;;;;4962037;28;20463;-73
2022/09/22 08:39:19;;;;;;;1.20;1.10;;;15.60;55.60;;;;;;4969701;28;20509;-70
2022/09/22 08:42:00;;;;;;;2.20;1.40;;;15.70;55.70;;;;;;4969346;28;20442;-72
2022/09/22 08:44:36;;;;;;;1.87;1.20;;;15.60;55.60;;;;;;4967403;28;21045;-73
2022/09/22 08:47:05;;;;;;;1.27;0.87;;;15.60;55.70;;;;;;4977575;28;20454;-72
2022/09/22 08:52:28;;;;;;;1.37;1.00;;;15.60;55.60;;;;;;4969182;28;20442;-72
2022/09/22 08:54:58;;;;;;;1.20;1.10;;;15.70;55.80;;;;;;4960408;28;21072;-72
2022/09/22 08:57:46;;;;;;;0.97;0.90;;;15.60;55.60;;;;;;4969144;28;20451;-72
2022/09/22 09:00:17;;;;;;;2.47;1.13;;;15.60;55.70;;;;;;4972523;28;20481;-72
2022/09/22 09:02:49;;;;;;;1.17;0.90;;;15.60;55.80;;;;;;4969148;28;20447;-72
2022/09/22 09:06:00;;;;;;;1.10;1.00;;;15.60;55.90;;;;;;4970800;28;20824;-72
2022/09/22 09:09:03;;;;;;;1.30;1.20;;;15.60;55.80;;;;;;4966697;28;20478;-72
2022/09/22 09:11:49;;;;;;;1.50;1.30;;;15.60;55.80;;;;;;4970708;28;20462;-72
2022/09/22 09:14:38;;;;;;;1.23;1.00;;;15.60;55.90;;;;;;4968921;28;20947;-72
2022/09/22 09:17:11;;;;;;;1.10;1.00;;;15.60;55.90;;;;;;4971538;28;20548;-73
2022/09/22 09:19:42;;;;;;;1.07;0.90;;;15.60;55.90;;;;;;4969508;28;20870;-72
2022/09/22 09:22:21;;;;;;;1.33;1.00;;;15.70;56.00;;;;;;4968323;28;21081;-72
2022/09/22 09:24:54;;;;;;;2.30;1.17;;;15.60;55.90;;;;;;4964266;28;20512;-71
2022/09/22 09:27:50;;;;;;;1.10;1.10;;;15.60;55.90;;;;;;4969424;28;20493;-73
2022/09/22 09:30:21;;;;;;;1.30;1.00;;;15.60;56.00;;;;;;4973669;28;20529;-72
2022/09/22 09:32:52;;;;;;;1.10;1.00;;;15.60;56.00;;;;;;4960273;28;20463;-73
2022/09/22 09:35:25;;;;;;;1.53;1.20;;;15.60;56.00;;;;;;4962670;28;20459;-72
2022/09/22 09:37:57;;;;;;;1.47;0.80;;;15.60;56.00;;;;;;4958225;28;20450;-72
2022/09/22 09:40:26;;;;;;;1.63;1.00;;;15.60;56.00;;;;;;4967638;28;20510;-71
2022/09/22 09:43:00;;;;;;;1.80;1.30;;;15.60;56.10;;;;;;4968177;28;20460;-72
2022/09/22 09:45:36;;;;;;;1.47;1.23;;;15.70;56.40;;;;;;4969043;28;20710;-71
2022/09/22 09:48:26;;;;;;;1.37;1.27;;;15.70;56.20;;;;;;4968985;28;20475;-72
2022/09/22 09:50:55;;;;;;;1.70;1.43;;;15.70;56.20;;;;;;4978557;28;20501;-71
2022/09/22 09:53:32;;;;;;;1.43;1.33;;;15.70;56.20;;;;;;4966078;28;20954;-71
2022/09/22 09:56:01;;;;;;;1.70;1.10;;;15.70;56.20;;;;;;4963019;28;21126;-72
2022/09/22 10:01:16;;;;;;;1.47;1.37;;;15.70;56.20;;;;;;4969603;28;20534;-72
2022/09/22 10:03:53;;;;;;;2.03;1.20;;;15.70;56.20;;;;;;4967232;28;20499;-72
2022/09/22 10:06:25;;;;;;;1.17;1.03;;;15.70;56.20;;;;;;4962397;28;20443;-73
2022/09/22 10:08:54;;;;;;;1.80;1.13;;;15.70;56.20;;;;;;4969797;28;20568;-73
2022/09/22 10:11:30;;;;;;;1.37;1.27;;;15.70;56.10;;;;;;4957256;28;20326;-71
2022/09/22 10:13:59;;;;;;;1.30;1.00;;;15.70;56.40;;;;;;4968172;28;20468;-72
2022/09/22 10:16:32;;;;;;;1.80;1.70;;;15.80;55.90;;;;;;4969602;28;20513;-71
2022/09/22 10:19:20;;;;;;;1.37;1.27;;;15.90;55.30;;;;;;4966847;28;21021;-71
2022/09/22 10:21:49;;;;;;;1.50;1.40;;;16.00;55.20;;;;;;4968236;28;20877;-71
2022/09/22 10:24:33;;;;;;;1.50;1.13;;;16.00;54.80;;;;;;4967165;28;20478;-71
2022/09/22 10:27:02;;;;;;;3.47;1.63;;;16.10;54.30;;;;;;4969430;28;20426;-71
2022/09/22 10:29:34;;;;;;;1.50;1.30;;;16.00;54.70;;;;;;4968040;28;20842;-71
2022/09/22 10:32:14;;;;;;;2.50;1.30;;;16.00;54.80;;;;;;4968483;28;20533;-69
2022/09/22 10:34:44;;;;;;;1.40;1.30;;;16.00;54.40;;;;;;4967003;28;20541;-72
2022/09/22 10:37:15;;;;;;;1.97;1.30;;;16.00;53.20;;;;;;4962454;28;20950;-75
2022/09/22 10:39:45;;;;;;;1.43;1.33;;;16.10;53.80;;;;;;4971615;28;20800;-75
2022/09/22 10:42:32;;;;;;;3.03;2.30;;;16.00;54.00;;;;;;4968999;28;20427;-75
2022/09/22 10:45:04;;;;;;;1.80;1.40;;;16.00;54.00;;;;;;4969023;28;20966;-75
2022/09/22 10:47:54;;;;;;;1.30;1.20;;;16.00;54.00;;;;;;4968900;28;20442;-76
2022/09/22 10:50:41;;;;;;;3.37;1.50;;;16.00;54.20;;;;;;4967947;28;20546;-76
2022/09/22 10:53:28;;;;;;;1.47;1.10;;;16.10;53.90;;;;;;4970616;28;20430;-76
2022/09/22 10:56:05;;;;;;;1.10;0.90;;;16.10;54.00;;;;;;4968051;28;20465;-75
2022/09/22 10:58:51;;;;;;;1.63;1.50;;;16.00;54.10;;;;;;4967875;28;20458;-76
2022/09/22 11:01:40;;;;;;;1.43;1.23;;;16.00;54.10;;;;;;4972107;28;20820;-71
2022/09/22 11:04:28;;;;;;;4.07;1.80;;;16.00;54.40;;;;;;4967325;28;20493;-71
2022/09/22 11:13:10;;;;;;;2.00;1.27;;;15.90;54.50;;;;;;4874206;29;20453;-66
2022/09/22 11:16:01;;;;;;;1.40;1.27;;;16.00;53.90;;;;;;4951086;28;20541;-65
2022/09/22 11:18:51;;;;;;;1.10;1.00;;;16.00;54.10;;;;;;4980573;28;20534;-67
2022/09/22 11:21:30;;;;;;;2.43;1.57;;;16.00;51.80;;;;;;4967391;28;20942;-67
2022/09/22 11:24:28;;;;;;;2.40;1.37;;;16.10;50.50;;;;;;4960521;28;20512;-67
2022/09/22 11:26:58;;;;;;;2.40;1.30;;;16.10;51.80;;;;;;4966568;28;20439;-67
2022/09/22 11:29:49;;;;;;;1.90;1.13;;;16.20;51.80;;;;;;4966944;28;21078;-67
2022/09/22 11:32:41;;;;;;;1.73;1.43;;;16.20;50.70;;;;;;4958760;28;20478;-67
2022/09/22 11:35:51;;;;;;;1.83;1.00;;;16.20;50.90;;;;;;4967490;28;20458;-67
2022/09/22 11:39:01;;;;;;;1.20;1.10;;;16.20;51.00;;;;;;4926997;28;20994;-67
2022/09/22 11:41:40;;;;;;;1.10;0.90;;;16.30;50.00;;;;;;4967674;28;20466;-71
2022/09/22 11:44:28;;;;;;;1.87;1.00;;;16.30;50.90;;;;;;4961893;28;20529;-71
2022/09/22 11:47:26;;;;;;;1.40;1.20;;;16.30;50.70;;;;;;4962629;28;20439;-71
2022/09/22 11:50:19;;;;;;;0.87;0.80;;;16.30;50.80;;;;;;4964563;28;20504;-72
2022/09/22 11:53:04;;;;;;;2.70;1.10;;;16.20;50.80;;;;;;4967110;28;20443;-71
2022/09/22 11:55:43;;;;;;;1.73;1.10;;;16.20;49.10;;;;;;4967915;28;20470;-71
2022/09/22 11:58:17;;;;;;;1.30;1.20;;;16.30;50.00;;;;;;4967167;28;20462;-72
2022/09/22 12:00:51;;;;;;;1.80;1.30;;;16.30;50.80;;;;;;4959076;28;20792;-72
2022/09/22 12:03:24;;;;;;;1.60;1.30;;;16.20;50.00;;;;;;4964616;28;20486;-72
2022/09/22 12:05:57;;;;;;;1.67;1.30;;;16.10;51.00;;;;;;4964583;28;20474;-69
2022/09/22 12:08:30;;;;;;;1.23;1.00;;;16.20;49.20;;;;;;4966420;28;20706;-72
2022/09/22 12:11:01;;;;;;;1.97;0.93;;;16.20;48.80;;;;;;4967131;28;20581;-72
2022/09/22 12:13:33;;;;;;;1.73;1.40;;;16.30;49.40;;;;;;4965529;28;21016;-72
2022/09/22 12:16:07;;;;;;;1.00;0.90;;;16.20;49.20;;;;;;4967088;28;20458;-71
2022/09/22 12:18:44;;;;;;;1.70;1.20;;;16.30;49.10;;;;;;4965416;28;20462;-71
2022/09/22 12:21:28;;;;;;;1.20;1.10;;;16.30;49.80;;;;;;4967465;28;20442;-71
2022/09/22 12:24:02;;;;;;;1.90;1.23;;;16.30;49.20;;;;;;4957749;28;20478;-71
2022/09/22 12:26:33;;;;;;;1.40;1.20;;;16.30;48.30;;;;;;4967058;28;20550;-71
2022/09/22 12:29:09;;;;;;;0.93;0.77;;;16.40;46.70;;;;;;4966377;28;21036;-70
2022/09/22 12:31:39;;;;;;;1.40;1.30;;;16.40;48.00;;;;;;4967137;28;20438;-70
2022/09/22 12:34:17;;;;;;;1.50;1.40;;;16.40;48.00;;;;;;4965132;28;20466;-70
2022/09/22 12:36:47;;;;;;;1.07;0.90;;;16.40;47.20;;;;;;4967362;28;20469;-71
2022/09/22 12:39:17;;;;;;;0.87;0.87;;;16.40;46.80;;;;;;4966246;28;20885;-71
2022/09/22 12:41:51;;;;;;;1.13;1.00;;;16.40;48.10;;;;;;4965653;28;20486;-71
2022/09/22 12:44:23;;;;;;;1.53;1.17;;;16.40;46.40;;;;;;4982788;28;20470;-71
2022/09/22 12:46:55;;;;;;;1.00;0.80;;;16.40;46.30;;;;;;4965530;28;20438;-72
2022/09/22 12:49:24;;;;;;;1.57;1.40;;;16.40;47.90;;;;;;4970207;28;20506;-71
2022/09/22 12:51:52;;;;;;;1.70;1.20;;;16.40;47.70;;;;;;4970742;28;20454;-71
2022/09/22 12:54:45;;;;;;;1.90;1.47;;;16.40;47.60;;;;;;4965899;28;20510;-71
2022/09/22 12:57:45;;;;;;;1.37;1.03;;;16.40;47.50;;;;;;4965048;28;20791;-71
2022/09/22 13:00:33;;;;;;;1.40;0.87;;;16.30;48.80;;;;;;4945976;28;20453;-71
2022/09/22 13:03:48;;;;;;;1.63;1.20;;;16.20;48.90;;;;;;4967250;28;20486;-71
2022/09/22 13:06:54;;;;;;;1.47;0.70;;;16.20;49.00;;;;;;4966138;28;20459;-71
2022/09/22 13:09:25;;;;;;;1.00;0.80;;;16.20;47.40;;;;;;4937723;28;20475;-71
2022/09/22 13:12:24;;;;;;;1.17;1.07;;;16.30;49.20;;;;;;4967846;28;20521;-72
2022/09/22 13:15:20;;;;;;;0.87;0.70;;;16.20;46.80;;;;;;4970406;28;20473;-72
2022/09/22 13:17:52;;;;;;;1.20;0.90;;;16.30;48.90;;;;;;4970299;28;20442;-72
2022/09/22 13:20:24;;;;;;;1.30;1.10;;;16.30;49.30;;;;;;4970383;28;20439;-71
2022/09/22 13:22:54;;;;;;;1.53;0.97;;;16.30;48.50;;;;;;4962460;28;20996;-71
2022/09/22 13:25:28;;;;;;;1.63;1.20;;;16.30;48.30;;;;;;4969842;28;20473;-74
2022/09/22 13:28:11;;;;;;;1.07;0.97;;;16.40;47.60;;;;;;4969556;28;20506;-69
2022/09/22 13:30:43;;;;;;;1.73;1.10;;;16.40;48.50;;;;;;4984431;28;20462;-63
2022/09/22 13:33:20;;;;;;;1.23;1.13;;;16.70;47.80;;;;;;4964884;28;20440;-63
2022/09/22 13:35:53;;;;;;;1.30;1.20;;;16.80;46.10;;;;;;4970060;28;21159;-62
2022/09/22 13:38:21;;;;;;;2.00;0.90;;;16.90;46.70;;;;;;4967597;28;20565;-72